Time;durP1;ratioP1;P1;durP2;ratioP2;P2;SDS_P1;SDS_P2;PMS_P1;PMS_P2;Temp;Humidity;BMP_temperature;BMP_pressure;BME280_temperature;BME280_humidity;BME280_pressure;Samples;Min_cycle;Max_cycle;Signal;HPM_P1;HPM_P2
2021/07/29 00:01:32;;;;;;;2.67;2.30;;;17.90;99.90;;;;;;7651369;23;20172;-65
2021/07/29 00:04:34;;;;;;;3.20;2.70;;;17.90;99.90;;;;;;7677261;23;20191;-66
2021/07/29 00:07:37;;;;;;;2.80;2.50;;;17.90;99.90;;;;;;7677873;23;20168;-66
2021/07/29 00:10:39;;;;;;;2.63;2.00;;;17.90;99.90;;;;;;7677164;23;20478;-65
2021/07/29 00:13:43;;;;;;;3.57;2.17;;;17.90;99.90;;;;;;7678172;23;20267;-66
2021/07/29 00:16:50;;;;;;;2.40;2.20;;;17.90;99.90;;;;;;7651569;23;20496;-66
2021/07/29 00:19:52;;;;;;;2.63;2.20;;;17.90;99.90;;;;;;7677089;23;20150;-65
2021/07/29 00:22:59;;;;;;;2.33;2.10;;;17.90;99.90;;;;;;7677371;23;20574;-66
2021/07/29 00:26:01;;;;;;;3.27;2.40;;;17.90;99.90;;;;;;7650798;23;20161;-65
2021/07/29 00:29:03;;;;;;;2.53;2.30;;;17.90;99.90;;;;;;7651710;23;20515;-65
2021/07/29 00:32:06;;;;;;;2.23;2.03;;;17.90;99.90;;;;;;7651107;23;20175;-65
2021/07/29 00:35:15;;;;;;;3.00;2.07;;;17.90;99.90;;;;;;7677240;23;20184;-65
2021/07/29 00:38:17;;;;;;;2.80;2.00;;;17.90;99.90;;;;;;7677532;23;20157;-66
2021/07/29 00:41:19;;;;;;;2.30;2.10;;;17.80;99.90;;;;;;7650818;23;20174;-66
2021/07/29 00:44:21;;;;;;;4.83;2.00;;;17.80;99.90;;;;;;7651467;23;20163;-66
2021/07/29 00:47:24;;;;;;;2.07;1.80;;;17.70;99.90;;;;;;7676714;23;20194;-66
2021/07/29 00:50:27;;;;;;;3.37;1.87;;;17.70;99.90;;;;;;7677244;23;20191;-66
2021/07/29 00:53:29;;;;;;;1.63;1.53;;;17.70;99.90;;;;;;7677481;23;20175;-65
2021/07/29 00:56:32;;;;;;;1.70;1.60;;;17.70;99.90;;;;;;7677020;23;20164;-65
2021/07/29 00:59:36;;;;;;;1.50;1.40;;;17.70;99.90;;;;;;7677047;23;20233;-65
2021/07/29 01:02:38;;;;;;;1.60;1.50;;;17.60;99.90;;;;;;7676652;23;20160;-65
2021/07/29 01:05:41;;;;;;;1.80;1.70;;;17.60;99.90;;;;;;7650991;23;20184;-65
2021/07/29 01:09:19;;;;;;;1.80;1.70;;;17.60;99.90;;;;;;7651126;23;20535;-65
2021/07/29 01:12:21;;;;;;;2.17;1.70;;;17.60;99.90;;;;;;7563869;23;20610;-65
2021/07/29 01:15:23;;;;;;;1.50;1.40;;;17.60;99.90;;;;;;7564016;23;20193;-65
2021/07/29 01:18:26;;;;;;;1.90;1.70;;;17.50;99.90;;;;;;7563346;23;20493;-65
2021/07/29 01:21:29;;;;;;;2.00;1.70;;;17.50;99.90;;;;;;7563756;23;20228;-65
2021/07/29 01:24:31;;;;;;;3.63;1.63;;;17.50;99.90;;;;;;7539432;23;20517;-65
2021/07/29 01:27:36;;;;;;;1.73;1.63;;;17.50;99.90;;;;;;7564055;23;20178;-65
2021/07/29 01:30:38;;;;;;;2.20;1.43;;;17.50;99.90;;;;;;7563699;23;20627;-65
2021/07/29 01:33:41;;;;;;;2.03;1.83;;;17.40;99.90;;;;;;7562992;23;20615;-65
2021/07/29 01:36:44;;;;;;;5.40;1.80;;;17.40;99.90;;;;;;7539836;23;20174;-65
2021/07/29 01:39:46;;;;;;;2.50;1.60;;;17.40;99.90;;;;;;7565007;23;20245;-65
2021/07/29 01:42:48;;;;;;;1.70;1.60;;;17.40;99.90;;;;;;7542717;23;20588;-65
2021/07/29 01:45:50;;;;;;;2.57;1.70;;;17.40;99.90;;;;;;7574459;23;20169;-65
2021/07/29 01:48:53;;;;;;;1.60;1.47;;;17.40;99.90;;;;;;7615859;23;20243;-65
2021/07/29 01:51:55;;;;;;;1.40;1.30;;;17.40;99.90;;;;;;7616536;23;20177;-65
2021/07/29 01:54:57;;;;;;;1.57;1.47;;;17.40;99.90;;;;;;7641800;23;20391;-65
2021/07/29 01:58:00;;;;;;;1.43;1.33;;;17.40;99.90;;;;;;7616540;23;20160;-65
2021/07/29 02:01:03;;;;;;;2.10;1.50;;;17.40;99.90;;;;;;7641524;23;20160;-65
2021/07/29 02:04:06;;;;;;;2.30;1.63;;;17.30;99.90;;;;;;7616574;23;20169;-65
2021/07/29 02:07:08;;;;;;;2.63;1.70;;;17.30;99.90;;;;;;7642243;23;20192;-65
2021/07/29 02:10:11;;;;;;;1.50;1.23;;;17.30;99.90;;;;;;7641524;23;20239;-65
2021/07/29 02:13:13;;;;;;;4.33;2.10;;;17.30;99.90;;;;;;7642023;23;20176;-65
2021/07/29 02:16:16;;;;;;;1.70;1.57;;;17.20;99.90;;;;;;7641315;23;20660;-65
2021/07/29 02:19:18;;;;;;;3.27;1.60;;;17.10;99.90;;;;;;7616225;23;20176;-65
2021/07/29 02:22:21;;;;;;;1.90;1.70;;;17.10;99.90;;;;;;7668506;23;20198;-65
2021/07/29 02:25:23;;;;;;;2.03;1.83;;;17.10;99.90;;;;;;7678468;23;20600;-65
2021/07/29 02:28:25;;;;;;;3.37;1.60;;;17.00;99.90;;;;;;7678991;23;20179;-65
2021/07/29 02:31:28;;;;;;;2.80;1.67;;;16.90;99.90;;;;;;7678288;23;20168;-65
2021/07/29 02:34:30;;;;;;;1.70;1.60;;;16.80;99.90;;;;;;7678929;23;20191;-65
2021/07/29 02:37:33;;;;;;;2.50;1.40;;;16.80;99.90;;;;;;7679326;23;20170;-65
2021/07/29 02:40:36;;;;;;;2.00;1.53;;;16.80;99.90;;;;;;7678108;23;20172;-65
2021/07/29 02:43:38;;;;;;;3.50;1.50;;;16.70;99.90;;;;;;7678819;23;20168;-65
2021/07/29 02:46:40;;;;;;;1.70;1.60;;;16.70;99.90;;;;;;7651711;23;20185;-64
2021/07/29 02:49:42;;;;;;;3.27;1.67;;;16.60;99.90;;;;;;7652545;23;20171;-65
2021/07/29 02:52:45;;;;;;;1.80;1.67;;;16.60;99.90;;;;;;7678151;23;20175;-65
2021/07/29 02:55:47;;;;;;;1.70;1.60;;;16.50;99.90;;;;;;7652081;23;20200;-65
2021/07/29 02:58:50;;;;;;;1.50;1.40;;;16.50;99.90;;;;;;7678568;23;20252;-65
2021/07/29 03:01:52;;;;;;;6.30;1.60;;;16.50;99.90;;;;;;7677876;23;20168;-65
2021/07/29 03:04:55;;;;;;;1.93;1.60;;;16.40;99.90;;;;;;7678755;23;20195;-65
2021/07/29 03:07:57;;;;;;;2.50;1.90;;;16.40;99.90;;;;;;7677912;23;20171;-65
2021/07/29 03:10:59;;;;;;;1.63;1.53;;;16.30;99.90;;;;;;7678355;23;20254;-65
2021/07/29 03:14:02;;;;;;;2.27;1.80;;;16.30;99.90;;;;;;7627552;23;20259;-66
2021/07/29 03:17:04;;;;;;;4.37;1.80;;;16.20;99.90;;;;;;7677839;23;20171;-65
2021/07/29 03:20:07;;;;;;;1.63;1.40;;;16.20;99.90;;;;;;7652351;23;20160;-65
2021/07/29 03:23:10;;;;;;;2.23;1.80;;;16.20;99.90;;;;;;7677243;23;20247;-65
2021/07/29 03:26:12;;;;;;;1.87;1.47;;;16.10;99.90;;;;;;7678278;23;20191;-65
2021/07/29 03:29:14;;;;;;;2.03;1.60;;;16.10;99.90;;;;;;7677954;23;20497;-65
2021/07/29 03:32:17;;;;;;;2.13;1.80;;;16.10;99.90;;;;;;7677809;23;20660;-65
2021/07/29 03:35:19;;;;;;;1.83;1.50;;;16.00;99.90;;;;;;7678010;23;20243;-65
2021/07/29 03:38:21;;;;;;;2.30;2.00;;;16.00;99.90;;;;;;7651086;23;20254;-65
2021/07/29 03:41:23;;;;;;;6.00;2.00;;;15.90;99.90;;;;;;7678130;23;20161;-65
2021/07/29 03:44:26;;;;;;;2.00;1.83;;;15.90;99.90;;;;;;7651976;23;20172;-66
2021/07/29 03:47:28;;;;;;;1.77;1.53;;;15.80;99.90;;;;;;7677700;23;20179;-65
2021/07/29 03:50:31;;;;;;;2.43;1.53;;;15.90;99.90;;;;;;7651448;23;20176;-65
2021/07/29 03:53:33;;;;;;;2.50;1.60;;;15.90;99.90;;;;;;7677407;23;20167;-65
2021/07/29 03:56:36;;;;;;;3.10;1.93;;;15.80;99.90;;;;;;7677569;23;20195;-65
2021/07/29 03:59:38;;;;;;;2.40;1.60;;;15.80;99.90;;;;;;7676748;23;20168;-65
2021/07/29 04:02:40;;;;;;;5.63;1.90;;;15.80;99.90;;;;;;7677108;23;20168;-65
2021/07/29 04:05:43;;;;;;;2.20;1.87;;;15.80;99.90;;;;;;7650998;23;20244;-65
2021/07/29 04:08:45;;;;;;;3.50;2.20;;;15.80;99.90;;;;;;7676864;23;20180;-65
2021/07/29 04:11:48;;;;;;;1.90;1.70;;;15.80;99.90;;;;;;7677121;23;20171;-65
2021/07/29 04:14:50;;;;;;;2.10;1.50;;;15.80;99.90;;;;;;7650229;23;20640;-65
2021/07/29 04:17:52;;;;;;;1.70;1.60;;;15.80;99.90;;;;;;7677324;23;20165;-65
2021/07/29 04:20:55;;;;;;;2.17;1.93;;;15.80;99.90;;;;;;7650918;23;20214;-65
2021/07/29 04:23:57;;;;;;;1.90;1.80;;;15.80;99.90;;;;;;7676568;23;20163;-65
2021/07/29 04:27:01;;;;;;;1.90;1.80;;;15.90;99.90;;;;;;7677472;23;20168;-65
2021/07/29 04:30:03;;;;;;;3.30;1.67;;;15.90;99.90;;;;;;7676797;23;20532;-65
2021/07/29 04:33:09;;;;;;;1.63;1.53;;;15.90;99.90;;;;;;7651143;23;20171;-66
2021/07/29 04:36:11;;;;;;;2.50;1.70;;;16.00;99.90;;;;;;7677187;23;20180;-65
2021/07/29 04:39:14;;;;;;;1.60;1.43;;;16.00;99.90;;;;;;7676609;23;20241;-65
2021/07/29 04:42:16;;;;;;;3.37;1.80;;;16.00;99.90;;;;;;7677081;23;20577;-65
2021/07/29 04:45:18;;;;;;;1.53;1.40;;;16.10;99.90;;;;;;7650473;23;20283;-65
2021/07/29 04:48:21;;;;;;;1.70;1.60;;;16.10;99.90;;;;;;7676960;23;20171;-66
2021/07/29 04:51:23;;;;;;;5.03;2.00;;;16.10;99.90;;;;;;7650327;23;20530;-65
2021/07/29 04:54:26;;;;;;;2.07;1.80;;;16.10;99.90;;;;;;7650430;23;20187;-65
2021/07/29 04:57:28;;;;;;;2.10;1.90;;;16.10;99.90;;;;;;7650924;23;20561;-65
2021/07/29 05:00:31;;;;;;;3.40;1.97;;;16.10;99.90;;;;;;7676068;23;20636;-66
2021/07/29 05:03:33;;;;;;;2.17;1.97;;;16.10;99.90;;;;;;7676995;23;20171;-66
2021/07/29 05:06:37;;;;;;;2.80;1.67;;;16.10;99.90;;;;;;7650573;23;20196;-65
2021/07/29 05:09:39;;;;;;;4.00;1.77;;;16.10;99.90;;;;;;7676700;23;20247;-65
2021/07/29 05:12:41;;;;;;;1.67;1.57;;;16.10;99.90;;;;;;7650535;23;20176;-65
2021/07/29 05:15:44;;;;;;;1.97;1.70;;;16.20;99.90;;;;;;7649701;23;20520;-65
2021/07/29 05:18:46;;;;;;;2.30;2.10;;;16.20;99.90;;;;;;7676827;23;20167;-65
2021/07/29 05:21:48;;;;;;;2.73;2.00;;;16.20;99.90;;;;;;7629880;23;20203;-65
2021/07/29 05:24:51;;;;;;;2.97;1.83;;;16.30;99.90;;;;;;7639587;23;20239;-65
2021/07/29 05:27:53;;;;;;;1.73;1.63;;;16.30;99.90;;;;;;7639761;23;20169;-65
2021/07/29 05:30:56;;;;;;;2.83;2.00;;;16.30;99.90;;;;;;7613330;23;20384;-65
2021/07/29 05:33:59;;;;;;;4.37;1.90;;;16.40;99.90;;;;;;7639830;23;20188;-65
2021/07/29 05:37:01;;;;;;;3.00;1.70;;;16.40;99.90;;;;;;7639530;23;20185;-65
2021/07/29 05:40:07;;;;;;;2.00;1.70;;;16.40;99.90;;;;;;7613225;23;20229;-65
2021/07/29 05:43:09;;;;;;;5.80;1.90;;;16.50;99.90;;;;;;7639570;23;20199;-65
2021/07/29 05:46:13;;;;;;;2.57;1.50;;;16.50;99.90;;;;;;7639774;23;20227;-65
2021/07/29 05:49:16;;;;;;;3.43;1.70;;;16.60;99.90;;;;;;7613579;23;20175;-65
2021/07/29 05:52:18;;;;;;;2.03;1.83;;;16.60;99.90;;;;;;7639239;23;20165;-66
2021/07/29 05:55:20;;;;;;;2.10;1.90;;;16.70;99.90;;;;;;7639505;23;20189;-66
2021/07/29 05:58:23;;;;;;;2.57;1.87;;;16.70;99.90;;;;;;7639209;23;20607;-65
2021/07/29 06:01:25;;;;;;;2.23;2.03;;;16.80;99.90;;;;;;7613725;23;20161;-65
2021/07/29 06:04:27;;;;;;;2.10;1.90;;;16.90;99.90;;;;;;7639535;23;20174;-66
2021/07/29 06:07:30;;;;;;;1.77;1.67;;;16.90;99.90;;;;;;7612784;23;20195;-66
2021/07/29 06:10:32;;;;;;;1.80;1.70;;;17.00;99.90;;;;;;7612967;23;20193;-65
2021/07/29 06:13:35;;;;;;;2.40;1.70;;;17.00;99.90;;;;;;7612949;23;20620;-65
2021/07/29 06:16:37;;;;;;;6.27;1.80;;;17.10;99.90;;;;;;7588277;23;20192;-65
2021/07/29 06:19:41;;;;;;;2.57;1.60;;;17.10;99.90;;;;;;7613632;23;20168;-65
2021/07/29 06:22:43;;;;;;;2.03;1.77;;;17.20;99.90;;;;;;7612150;23;20192;-65
2021/07/29 06:25:46;;;;;;;2.40;2.00;;;17.20;99.90;;;;;;7640466;23;20164;-65
2021/07/29 06:28:48;;;;;;;5.83;1.83;;;17.30;99.90;;;;;;7641200;23;20172;-66
2021/07/29 06:31:50;;;;;;;2.20;2.00;;;17.40;99.90;;;;;;7640688;23;20165;-65
2021/07/29 06:34:53;;;;;;;2.13;1.60;;;17.40;99.90;;;;;;7640925;23;20660;-65
2021/07/29 06:37:57;;;;;;;2.40;2.00;;;17.50;99.90;;;;;;7639898;23;20161;-66
2021/07/29 06:41:03;;;;;;;2.60;1.47;;;17.60;99.90;;;;;;7640582;23;20168;-65
2021/07/29 06:44:07;;;;;;;3.63;2.10;;;17.80;99.90;;;;;;7641570;23;20156;-65
2021/07/29 06:47:20;;;;;;;1.90;1.80;;;17.80;99.90;;;;;;7641713;23;20507;-65
2021/07/29 06:50:23;;;;;;;3.20;1.70;;;18.00;99.90;;;;;;7640075;23;20521;-66
2021/07/29 06:53:25;;;;;;;1.90;1.60;;;18.20;99.90;;;;;;7641335;23;20461;-65
2021/07/29 06:56:27;;;;;;;4.43;1.27;;;18.40;99.90;;;;;;7641387;23;20721;-65
2021/07/29 06:59:29;;;;;;;3.50;1.70;;;18.60;99.90;;;;;;7641533;23;20160;-66
2021/07/29 07:02:32;;;;;;;1.63;1.50;;;18.90;99.90;;;;;;7641309;23;20160;-66
2021/07/29 07:05:34;;;;;;;2.90;1.73;;;19.20;99.90;;;;;;7641273;23;20189;-66
2021/07/29 07:08:36;;;;;;;2.40;1.70;;;19.50;99.90;;;;;;7641076;23;20180;-66
2021/07/29 07:11:39;;;;;;;1.67;1.57;;;19.70;99.90;;;;;;7614790;23;20179;-66
2021/07/29 07:14:41;;;;;;;1.90;1.40;;;19.90;99.90;;;;;;7641278;23;20165;-66
2021/07/29 07:17:44;;;;;;;3.07;1.83;;;20.20;99.90;;;;;;7641085;23;20185;-66
2021/07/29 07:20:46;;;;;;;1.57;1.47;;;20.40;99.90;;;;;;7647619;23;20200;-66
2021/07/29 07:23:48;;;;;;;3.33;1.50;;;20.50;99.90;;;;;;7678207;23;20172;-66
2021/07/29 07:26:51;;;;;;;1.70;1.60;;;20.80;99.90;;;;;;7677949;23;20168;-66
2021/07/29 07:29:53;;;;;;;1.47;1.37;;;21.00;99.90;;;;;;7678148;23;20168;-66
2021/07/29 07:32:55;;;;;;;1.90;1.40;;;21.30;99.90;;;;;;7627552;23;20255;-65
2021/07/29 07:35:58;;;;;;;2.13;1.93;;;21.60;99.90;;;;;;7650559;23;20734;-65
2021/07/29 07:39:00;;;;;;;10.50;3.47;;;21.80;99.90;;;;;;7676584;23;20242;-65
2021/07/29 07:42:02;;;;;;;2.33;1.60;;;22.00;99.90;;;;;;7677975;23;20160;-66
2021/07/29 07:45:05;;;;;;;2.00;1.80;;;22.30;99.90;;;;;;7677606;23;20466;-65
2021/07/29 07:48:09;;;;;;;1.40;1.30;;;22.60;99.90;;;;;;7677284;23;20234;-65
2021/07/29 07:51:11;;;;;;;2.97;1.93;;;22.90;99.90;;;;;;7678125;23;20175;-66
2021/07/29 07:54:14;;;;;;;1.70;1.60;;;23.20;99.90;;;;;;7678213;23;20164;-65
2021/07/29 07:57:16;;;;;;;1.70;1.60;;;23.50;99.90;;;;;;7678042;23;20618;-65
2021/07/29 08:00:18;;;;;;;2.03;1.77;;;23.80;99.90;;;;;;7678679;23;20176;-68
2021/07/29 08:03:21;;;;;;;2.00;1.80;;;24.00;98.20;;;;;;7652443;23;20242;-68
2021/07/29 08:06:23;;;;;;;5.07;1.63;;;24.20;98.50;;;;;;7678241;23;20298;-68
2021/07/29 08:09:26;;;;;;;1.70;1.60;;;24.40;98.90;;;;;;7678566;23;20168;-68
2021/07/29 08:12:28;;;;;;;1.70;1.60;;;24.70;98.60;;;;;;7677722;23;20211;-68
2021/07/29 08:15:32;;;;;;;1.90;1.80;;;24.90;98.80;;;;;;7676809;23;20270;-68
2021/07/29 08:18:34;;;;;;;3.03;1.80;;;25.00;96.70;;;;;;7649873;23;20164;-68
2021/07/29 08:21:37;;;;;;;1.73;1.63;;;25.20;96.50;;;;;;7677108;23;20267;-68
2021/07/29 08:24:39;;;;;;;1.77;1.67;;;25.40;95.60;;;;;;7677269;23;20239;-69
2021/07/29 08:27:41;;;;;;;4.40;1.67;;;25.60;95.30;;;;;;7677274;23;20195;-69
2021/07/29 08:30:44;;;;;;;1.70;1.60;;;25.90;95.20;;;;;;7675507;23;20214;-68
2021/07/29 08:33:46;;;;;;;5.05;2.13;;;26.10;94.10;;;;;;7676988;23;20175;-68
2021/07/29 08:36:48;;;;;;;2.65;2.25;;;26.30;93.10;;;;;;7676808;23;20188;-68
2021/07/29 08:39:51;;;;;;;1.92;1.73;;;26.60;93.90;;;;;;7677905;23;20235;-69
2021/07/29 08:42:53;;;;;;;2.53;2.15;;;26.90;93.70;;;;;;7677170;23;20160;-67
2021/07/29 08:45:55;;;;;;;2.28;2.08;;;27.00;92.40;;;;;;7676975;23;20615;-66
2021/07/29 08:48:57;;;;;;;3.35;2.00;;;27.20;91.30;;;;;;7676810;23;20246;-65
2021/07/29 08:52:00;;;;;;;3.30;2.00;;;27.40;90.50;;;;;;7651082;23;20176;-66
2021/07/29 08:55:03;;;;;;;2.00;1.80;;;27.50;89.10;;;;;;7649001;23;20222;-66
2021/07/29 08:58:05;;;;;;;3.80;1.98;;;27.60;89.70;;;;;;7675913;23;20629;-66
2021/07/29 09:01:09;;;;;;;2.10;2.00;;;27.80;91.00;;;;;;7676694;23;20179;-66
2021/07/29 09:04:14;;;;;;;2.50;2.30;;;28.00;88.20;;;;;;7676730;23;20172;-66
2021/07/29 09:07:17;;;;;;;2.22;2.03;;;28.10;85.70;;;;;;7676589;23;20195;-66
2021/07/29 09:10:22;;;;;;;3.00;2.00;;;28.00;86.20;;;;;;7650215;23;20255;-66
2021/07/29 09:13:24;;;;;;;2.17;1.90;;;28.20;90.00;;;;;;7676615;23;20257;-66
2021/07/29 09:16:26;;;;;;;2.00;1.88;;;28.50;90.20;;;;;;7676731;23;20391;-66
2021/07/29 09:19:40;;;;;;;2.88;2.10;;;28.80;80.20;;;;;;7650707;23;20167;-66
2021/07/29 09:22:43;;;;;;;2.30;2.10;;;29.00;77.90;;;;;;7676679;23;20192;-66
2021/07/29 09:25:58;;;;;;;3.75;2.10;;;29.00;78.90;;;;;;7676405;23;20190;-66
2021/07/29 09:29:00;;;;;;;5.68;2.90;;;29.20;77.40;;;;;;7676642;23;20168;-68
2021/07/29 09:32:09;;;;;;;5.45;3.42;;;29.40;80.10;;;;;;7676151;23;20174;-66
2021/07/29 09:35:12;;;;;;;56.70;16.42;;;29.80;80.70;;;;;;7676805;23;20240;-66
2021/07/29 09:38:31;;;;;;;3.03;2.38;;;29.90;73.50;;;;;;7675504;23;20192;-66
2021/07/29 09:41:34;;;;;;;2.95;2.38;;;30.00;69.40;;;;;;7648329;23;20243;-66
2021/07/29 09:44:41;;;;;;;2.33;2.13;;;30.10;71.40;;;;;;7678111;23;20561;-67
2021/07/29 09:47:44;;;;;;;2.55;2.30;;;30.30;70.10;;;;;;7677792;23;20239;-67
2021/07/29 09:50:46;;;;;;;2.05;1.92;;;30.40;65.30;;;;;;7677638;23;20267;-66
2021/07/29 09:53:51;;;;;;;2.85;1.98;;;30.70;65.40;;;;;;7678068;23;20171;-68
2021/07/29 09:56:53;;;;;;;2.28;2.08;;;30.80;62.90;;;;;;7675012;23;20545;-69
2021/07/29 09:59:56;;;;;;;2.50;2.30;;;31.10;65.60;;;;;;7675158;23;20164;-68
2021/07/29 10:03:00;;;;;;;2.20;2.00;;;31.30;65.20;;;;;;7677158;23;20206;-68
2021/07/29 10:06:17;;;;;;;2.40;2.20;;;31.60;59.80;;;;;;7651671;23;20187;-68
2021/07/29 10:09:22;;;;;;;2.38;2.17;;;31.80;59.10;;;;;;7678022;23;20169;-64
2021/07/29 10:12:29;;;;;;;2.28;2.08;;;32.00;61.20;;;;;;7678212;23;20153;-62
2021/07/29 10:15:40;;;;;;;2.15;2.05;;;32.20;60.30;;;;;;7677662;23;20605;-68
2021/07/29 10:18:51;;;;;;;3.42;1.85;;;32.40;58.60;;;;;;7678970;23;20149;-68
2021/07/29 10:21:54;;;;;;;2.70;2.15;;;32.40;58.40;;;;;;7679233;23;20188;-68
2021/07/29 10:24:56;;;;;;;2.67;2.47;;;32.40;57.50;;;;;;7679943;23;20521;-68
2021/07/29 10:28:22;;;;;;;2.40;2.20;;;32.30;55.50;;;;;;7679260;23;20203;-68
2021/07/29 10:31:49;;;;;;;2.25;2.05;;;31.90;55.80;;;;;;7653629;23;20160;-69
2021/07/29 10:34:52;;;;;;;2.40;2.20;;;31.90;58.70;;;;;;7679861;23;20160;-67
2021/07/29 10:37:55;;;;;;;2.65;2.30;;;32.00;59.50;;;;;;7679607;23;20180;-68
2021/07/29 10:41:04;;;;;;;3.22;2.28;;;31.30;55.90;;;;;;7653474;23;20172;-69
2021/07/29 10:44:10;;;;;;;1.95;1.85;;;31.30;57.50;;;;;;7679577;23;20152;-69
2021/07/29 10:47:14;;;;;;;2.05;1.88;;;31.70;59.60;;;;;;7653510;23;20156;-68
2021/07/29 10:50:17;;;;;;;2.38;2.17;;;31.50;58.60;;;;;;7679441;23;20565;-69
2021/07/29 10:53:21;;;;;;;4.55;2.33;;;31.90;58.40;;;;;;7652973;23;20469;-69
2021/07/29 10:56:25;;;;;;;2.63;2.42;;;32.40;57.60;;;;;;7678602;23;20296;-67
2021/07/29 10:59:28;;;;;;;2.42;2.15;;;32.90;57.90;;;;;;7678530;23;20164;-68
2021/07/29 11:02:36;;;;;;;2.78;2.50;;;32.80;55.90;;;;;;7652210;23;20604;-69
2021/07/29 11:05:42;;;;;;;2.20;2.10;;;32.90;56.40;;;;;;7653647;23;20184;-69
2021/07/29 11:08:45;;;;;;;2.58;2.38;;;33.40;56.60;;;;;;7679482;23;20165;-68
2021/07/29 11:11:50;;;;;;;2.95;2.58;;;33.80;56.90;;;;;;7651825;23;20195;-69
2021/07/29 11:14:58;;;;;;;3.70;3.40;;;34.00;53.90;;;;;;7652414;23;20168;-70
2021/07/29 11:18:13;;;;;;;2.78;2.53;;;34.00;54.10;;;;;;7652502;23;20193;-71
2021/07/29 11:21:16;;;;;;;2.80;2.28;;;34.00;53.60;;;;;;7652315;23;20633;-72
2021/07/29 11:24:25;;;;;;;1.98;1.88;;;34.20;52.60;;;;;;7652681;23;20608;-72
2021/07/29 11:27:31;;;;;;;2.28;2.17;;;34.50;53.10;;;;;;7678916;23;20157;-73
2021/07/29 11:30:43;;;;;;;2.33;2.13;;;34.50;50.40;;;;;;7677678;23;20299;-72
2021/07/29 11:33:49;;;;;;;3.92;2.58;;;34.70;52.70;;;;;;7677987;23;20153;-72
2021/07/29 11:36:55;;;;;;;2.45;2.20;;;35.00;49.50;;;;;;7677749;23;20708;-72
2021/07/29 11:39:57;;;;;;;2.70;2.50;;;35.00;48.30;;;;;;7677883;23;20227;-71
2021/07/29 11:42:59;;;;;;;2.42;2.22;;;34.80;47.20;;;;;;7677700;23;20170;-72
2021/07/29 11:46:12;;;;;;;2.42;2.22;;;34.60;46.80;;;;;;7626811;23;20484;-71
2021/07/29 11:49:14;;;;;;;3.22;2.63;;;34.70;51.00;;;;;;7677774;23;20149;-73
2021/07/29 11:52:18;;;;;;;2.28;2.17;;;35.00;51.40;;;;;;7677506;23;20235;-74
2021/07/29 11:55:22;;;;;;;3.33;2.47;;;35.30;53.10;;;;;;7651587;23;20500;-73
2021/07/29 11:58:25;;;;;;;2.70;2.50;;;35.50;49.10;;;;;;7651652;23;20560;-73
2021/07/29 12:01:28;;;;;;;2.22;2.13;;;35.50;47.90;;;;;;7651750;23;20182;-72
2021/07/29 12:04:39;;;;;;;2.30;2.20;;;35.70;47.90;;;;;;7678640;23;20171;-66
2021/07/29 12:07:42;;;;;;;2.90;2.67;;;35.90;47.30;;;;;;7652309;23;20970;-66
2021/07/29 12:10:44;;;;;;;3.25;2.95;;;35.40;45.90;;;;;;7678531;23;20171;-67
2021/07/29 12:13:47;;;;;;;3.05;2.85;;;35.30;46.70;;;;;;7678676;23;20191;-67
2021/07/29 12:16:51;;;;;;;3.00;2.70;;;35.50;45.60;;;;;;7678647;23;20282;-66
2021/07/29 12:20:05;;;;;;;2.85;2.65;;;35.80;46.20;;;;;;7678866;23;20258;-66
2021/07/29 12:23:12;;;;;;;2.90;2.70;;;35.90;44.80;;;;;;7677865;23;20648;-66
2021/07/29 12:26:15;;;;;;;2.97;2.78;;;35.90;42.10;;;;;;7677384;23;20172;-66
2021/07/29 12:29:40;;;;;;;3.22;2.97;;;35.80;44.30;;;;;;7677229;23;20170;-66
2021/07/29 12:32:42;;;;;;;2.63;2.42;;;36.00;43.60;;;;;;7650801;23;20169;-66
2021/07/29 12:36:02;;;;;;;2.67;2.47;;;36.10;43.30;;;;;;7676750;23;20263;-66
2021/07/29 12:39:05;;;;;;;3.03;2.65;;;36.10;42.10;;;;;;7651072;23;20160;-66
2021/07/29 12:42:29;;;;;;;3.05;2.85;;;36.30;44.30;;;;;;7677518;23;20160;-66
2021/07/29 12:45:54;;;;;;;5.07;2.63;;;36.30;42.80;;;;;;7650321;23;20157;-66
2021/07/29 12:48:57;;;;;;;2.63;2.42;;;36.30;45.70;;;;;;7677045;23;20554;-66
2021/07/29 12:52:00;;;;;;;2.63;2.40;;;36.20;42.00;;;;;;7676729;23;20194;-65
2021/07/29 12:55:10;;;;;;;3.35;2.75;;;36.20;46.10;;;;;;7650525;23;20176;-66
2021/07/29 12:58:13;;;;;;;2.30;2.10;;;36.60;43.40;;;;;;7676850;23;20180;-66
2021/07/29 13:01:16;;;;;;;3.08;2.65;;;37.10;43.80;;;;;;7676660;23;20227;-66
2021/07/29 13:04:26;;;;;;;3.22;2.92;;;37.60;42.90;;;;;;7676766;23;20246;-66
2021/07/29 13:07:28;;;;;;;2.90;2.70;;;37.80;42.60;;;;;;7650820;23;20584;-66
2021/07/29 13:10:31;;;;;;;3.22;2.95;;;38.10;41.90;;;;;;7676491;23;20168;-66
2021/07/29 13:13:36;;;;;;;3.30;3.10;;;38.30;41.40;;;;;;7676482;23;20671;-65
2021/07/29 13:16:38;;;;;;;3.25;2.95;;;38.40;39.50;;;;;;7676473;23;20187;-66
2021/07/29 13:19:41;;;;;;;3.83;2.85;;;38.40;39.50;;;;;;7676713;23;20160;-66
2021/07/29 13:22:43;;;;;;;4.30;2.88;;;38.40;38.70;;;;;;7677059;23;20319;-66
2021/07/29 13:25:47;;;;;;;2.83;2.63;;;38.30;39.70;;;;;;7677093;23;20161;-67
2021/07/29 13:28:50;;;;;;;3.63;3.00;;;38.40;38.80;;;;;;7676970;23;20164;-68
2021/07/29 13:31:52;;;;;;;3.08;2.88;;;38.60;38.60;;;;;;7650120;23;20175;-68
2021/07/29 13:34:54;;;;;;;3.03;2.83;;;38.70;36.70;;;;;;7678727;23;20245;-68
2021/07/29 13:37:57;;;;;;;2.67;2.47;;;38.60;37.50;;;;;;7677943;23;20184;-68
2021/07/29 13:41:02;;;;;;;3.38;3.08;;;38.90;37.40;;;;;;7677450;23;20164;-68
2021/07/29 13:44:08;;;;;;;2.92;2.72;;;38.90;37.10;;;;;;7678827;23;20164;-68
2021/07/29 13:47:11;;;;;;;3.80;3.40;;;38.90;38.80;;;;;;7679025;23;20210;-68
2021/07/29 13:50:14;;;;;;;3.58;2.83;;;39.20;38.40;;;;;;7652298;23;20175;-68
2021/07/29 13:53:16;;;;;;;3.40;3.10;;;39.40;37.80;;;;;;7652328;23;20183;-68
2021/07/29 13:56:18;;;;;;;2.53;2.33;;;39.20;37.50;;;;;;7677410;23;20168;-68
2021/07/29 13:59:25;;;;;;;3.00;2.78;;;38.90;38.80;;;;;;7676872;23;20148;-68
2021/07/29 14:02:28;;;;;;;2.92;2.72;;;38.80;39.30;;;;;;7650219;23;20670;-68
2021/07/29 14:05:34;;;;;;;3.30;3.00;;;39.20;37.40;;;;;;7651663;23;20207;-68
2021/07/29 14:08:36;;;;;;;2.90;2.65;;;39.10;36.70;;;;;;7653488;23;20263;-68
2021/07/29 14:11:39;;;;;;;3.25;2.97;;;38.60;39.50;;;;;;7679405;23;20179;-68
2021/07/29 14:14:42;;;;;;;3.47;2.58;;;37.90;38.90;;;;;;7679560;23;20168;-66
2021/07/29 14:17:53;;;;;;;5.22;3.13;;;37.10;42.70;;;;;;7678745;23;20190;-66
2021/07/29 14:21:09;;;;;;;6.22;3.00;;;36.60;44.80;;;;;;7678383;23;20679;-66
2021/07/29 14:24:11;;;;;;;2.97;2.70;;;36.70;45.80;;;;;;7652191;23;20165;-66
2021/07/29 14:27:14;;;;;;;3.22;2.92;;;37.30;43.80;;;;;;7651123;23;20176;-66
2021/07/29 14:30:16;;;;;;;3.50;3.20;;;38.30;43.50;;;;;;7678661;23;20164;-66
2021/07/29 14:33:21;;;;;;;3.47;3.05;;;39.40;38.40;;;;;;7678280;23;20247;-66
2021/07/29 14:36:23;;;;;;;3.47;2.80;;;40.30;37.70;;;;;;7628199;23;20172;-66
2021/07/29 14:39:25;;;;;;;3.55;2.63;;;40.90;37.50;;;;;;7678346;23;20227;-66
2021/07/29 14:42:28;;;;;;;4.18;2.95;;;41.40;39.60;;;;;;7678295;23;20171;-66
2021/07/29 14:48:42;;;;;;;6.43;2.83;;;40.70;41.40;;;;;;7678799;23;20168;-66
2021/07/29 14:51:48;;;;;;;3.20;2.90;;;39.50;42.80;;;;;;7678668;23;20180;-66
2021/07/29 14:54:57;;;;;;;3.47;2.78;;;39.10;43.50;;;;;;7678760;23;20239;-68
2021/07/29 16:08:34;;;;;;;6.22;2.72;;;37.50;46.40;;;;;;7677528;23;20157;-65
2021/07/29 16:11:38;;;;;;;8.10;3.42;;;37.40;46.00;;;;;;7677527;23;20156;-65
2021/07/29 16:14:42;;;;;;;7.43;3.20;;;36.70;46.20;;;;;;7677586;23;20528;-65
2021/07/29 16:17:44;;;;;;;3.03;2.70;;;35.70;47.80;;;;;;7677354;23;20180;-65
2021/07/29 16:20:46;;;;;;;4.05;2.97;;;34.80;48.40;;;;;;7650809;23;20216;-66
2021/07/29 16:23:49;;;;;;;5.80;3.17;;;34.40;49.60;;;;;;7677305;23;20191;-65
2021/07/29 16:26:51;;;;;;;7.95;3.42;;;33.60;50.30;;;;;;7677421;23;20555;-65
2021/07/29 16:29:54;;;;;;;4.60;2.92;;;32.20;52.00;;;;;;7677653;23;20246;-65
2021/07/29 16:32:56;;;;;;;7.57;3.10;;;30.90;54.40;;;;;;7677124;23;20183;-65
2021/07/29 16:35:58;;;;;;;9.50;2.92;;;29.70;56.10;;;;;;7677292;23;20211;-65
2021/07/29 16:39:01;;;;;;;4.30;3.05;;;28.90;58.10;;;;;;7677198;23;20654;-66
2021/07/29 16:42:04;;;;;;;5.55;3.45;;;28.30;59.60;;;;;;7677045;23;20167;-65
2021/07/29 16:45:07;;;;;;;7.13;3.20;;;27.70;61.30;;;;;;7650855;23;20613;-65
2021/07/29 16:48:10;;;;;;;4.85;2.80;;;27.20;63.70;;;;;;7676792;23;20179;-65
2021/07/29 16:51:12;;;;;;;5.60;3.05;;;26.80;65.10;;;;;;7676978;23;20175;-65
2021/07/29 16:54:15;;;;;;;4.55;3.40;;;26.60;66.40;;;;;;7677440;23;20298;-65
2021/07/29 16:57:17;;;;;;;5.18;3.08;;;26.30;67.60;;;;;;7650504;23;20221;-65
2021/07/29 17:00:19;;;;;;;4.25;3.00;;;26.10;69.70;;;;;;7677051;23;20171;-65
2021/07/29 17:03:22;;;;;;;3.35;3.05;;;25.80;70.70;;;;;;7676643;23;20492;-65
2021/07/29 17:06:25;;;;;;;4.75;3.60;;;25.70;72.10;;;;;;7676827;23;20184;-65
2021/07/29 17:09:27;;;;;;;3.70;2.92;;;25.70;73.20;;;;;;7650449;23;20176;-65